createdAt,value
2018-12-25T00:00:14.044Z,48.96
2018-12-25T00:00:45.656Z,49.78
2018-12-25T00:01:17.267Z,49.90
2018-12-25T00:01:48.875Z,49.58
2018-12-25T00:02:20.469Z,49.52
2018-12-25T00:02:52.065Z,49.77
2018-12-25T00:03:23.644Z,49.97
2018-12-25T00:03:55.260Z,49.63
2018-12-25T00:04:26.856Z,49.68
2018-12-25T00:04:58.474Z,49.88
2018-12-25T00:05:30.066Z,48.15
2018-12-25T00:06:01.665Z,49.53
2018-12-25T00:06:33.274Z,49.22
2018-12-25T00:07:04.870Z,49.42
2018-12-25T00:07:36.473Z,49.77
2018-12-25T00:08:08.079Z,50.62
2018-12-25T00:08:39.657Z,50.61
2018-12-25T00:09:11.250Z,50.96
2018-12-25T00:09:42.885Z,51.02
2018-12-25T00:10:14.524Z,50.59
2018-12-25T00:10:46.118Z,50.78
2018-12-25T00:11:17.714Z,50.78
2018-12-25T00:11:49.309Z,50.75
2018-12-25T00:12:20.912Z,50.69
2018-12-25T00:12:52.523Z,50.86
2018-12-25T00:13:24.135Z,50.92
2018-12-25T00:13:55.729Z,51.15
2018-12-25T00:14:27.348Z,50.91
2018-12-25T00:14:58.983Z,51.04
2018-12-25T00:15:30.591Z,51.15
2018-12-25T00:16:02.203Z,51.17
2018-12-25T00:16:33.795Z,51.17
2018-12-25T00:17:05.386Z,51.36
2018-12-25T00:17:36.978Z,51.37
2018-12-25T00:18:08.573Z,51.35
2018-12-25T00:18:40.173Z,51.73
2018-12-25T00:19:11.758Z,51.42
2018-12-25T00:19:43.349Z,51.71
2018-12-25T00:20:14.970Z,51.60
2018-12-25T00:20:46.567Z,51.66
2018-12-25T00:21:18.167Z,51.99
2018-12-25T00:21:49.748Z,51.68
2018-12-25T00:22:21.350Z,51.98
2018-12-25T00:22:53.106Z,51.86
2018-12-25T00:23:24.712Z,51.85
2018-12-25T00:23:56.313Z,52.11
2018-12-25T00:24:27.925Z,51.96
2018-12-25T00:24:59.585Z,51.93
2018-12-25T00:25:31.181Z,52.06
2018-12-25T00:26:02.788Z,52.07
2018-12-25T00:26:34.374Z,52.10
2018-12-25T00:27:06.017Z,52.28
2018-12-25T00:27:37.616Z,52.16
2018-12-25T00:28:09.201Z,52.19
2018-12-25T00:28:40.798Z,52.26
2018-12-25T00:29:12.394Z,52.24
2018-12-25T00:29:43.990Z,52.35
2018-12-25T00:30:15.631Z,52.27
2018-12-25T00:30:47.225Z,52.52
2018-12-25T00:31:18.937Z,52.35
2018-12-25T00:31:50.520Z,52.53
2018-12-25T00:32:22.100Z,52.44
2018-12-25T00:32:53.708Z,52.62
2018-12-25T00:33:25.319Z,52.72
2018-12-25T00:33:56.917Z,52.60
2018-12-25T00:34:28.874Z,52.63
2018-12-25T00:35:00.801Z,52.69
2018-12-25T00:35:32.423Z,52.65
2018-12-25T00:36:04.032Z,52.81
2018-12-25T00:36:35.640Z,52.58
2018-12-25T00:37:07.299Z,52.83
2018-12-25T00:37:38.899Z,52.76
2018-12-25T00:38:10.498Z,52.86
2018-12-25T00:38:42.097Z,52.70
2018-12-25T00:39:13.693Z,52.94
2018-12-25T00:39:45.290Z,52.97
2018-12-25T00:40:16.900Z,52.91
2018-12-25T00:40:48.508Z,52.81
2018-12-25T00:41:20.115Z,53.00
2018-12-25T00:41:51.700Z,53.06
2018-12-25T00:42:23.293Z,53.01
2018-12-25T00:42:54.886Z,53.11
2018-12-25T00:43:26.497Z,53.07
2018-12-25T00:43:58.144Z,53.06
2018-12-25T00:44:29.738Z,53.16
2018-12-25T00:45:01.345Z,53.05
2018-12-25T00:45:32.975Z,53.13
2018-12-25T00:46:04.569Z,53.27
2018-12-25T00:46:36.166Z,53.11
2018-12-25T00:47:07.780Z,53.19
2018-12-25T00:47:39.439Z,53.34
2018-12-25T00:48:11.039Z,53.22
2018-12-25T00:48:42.634Z,53.29
2018-12-25T00:49:14.901Z,53.30
2018-12-25T00:49:45.882Z,53.25
2018-12-25T00:50:17.795Z,53.14
2018-12-25T00:50:49.393Z,53.04
2018-12-25T00:51:20.989Z,52.97
2018-12-25T00:51:52.591Z,52.97
2018-12-25T00:52:24.204Z,52.97
2018-12-25T00:52:55.797Z,53.03
2018-12-25T00:53:27.412Z,52.98
2018-12-25T00:53:59.013Z,52.97
2018-12-25T00:54:30.605Z,52.87
2018-12-25T00:55:02.197Z,52.77
2018-12-25T00:55:33.827Z,52.79
2018-12-25T00:56:05.422Z,52.77
2018-12-25T00:56:37.027Z,52.74
2018-12-25T00:57:08.626Z,52.80
2018-12-25T00:57:40.236Z,52.86
2018-12-25T00:58:11.839Z,52.72
2018-12-25T00:58:43.444Z,52.89
2018-12-25T00:59:15.041Z,52.95
2018-12-25T00:59:46.633Z,52.94
2018-12-25T01:00:18.244Z,53.01
2018-12-25T01:00:49.869Z,53.10
2018-12-25T01:01:21.483Z,53.13
2018-12-25T01:01:53.092Z,53.19
2018-12-25T01:02:24.689Z,53.29
2018-12-25T01:02:56.290Z,53.29
2018-12-25T01:03:28.331Z,53.33
2018-12-25T01:03:59.978Z,53.30
2018-12-25T01:04:31.873Z,53.38
2018-12-25T01:05:04.113Z,53.43
2018-12-25T01:05:36.617Z,53.54
2018-12-25T01:06:08.154Z,53.65
2018-12-25T01:06:39.754Z,53.60
2018-12-25T01:07:11.351Z,53.65
2018-12-25T01:07:42.964Z,53.58
2018-12-25T01:08:14.562Z,53.59
2018-12-25T01:08:46.153Z,53.66
2018-12-25T01:09:17.749Z,53.60
2018-12-25T01:09:49.346Z,53.55
2018-12-25T01:10:20.952Z,53.50
2018-12-25T01:10:52.574Z,53.41
2018-12-25T01:11:24.171Z,53.36
2018-12-25T01:11:55.782Z,53.28
2018-12-25T01:12:27.367Z,53.30
2018-12-25T01:12:58.962Z,53.31
2018-12-25T01:13:30.553Z,53.40
2018-12-25T01:14:02.161Z,53.37
2018-12-25T01:14:33.771Z,53.38
2018-12-25T01:15:05.380Z,53.41
2018-12-25T01:15:37.480Z,53.24
2018-12-25T01:16:09.101Z,53.34
2018-12-25T01:16:40.694Z,53.36
2018-12-25T01:17:12.286Z,53.36
2018-12-25T01:17:43.896Z,53.32
2018-12-25T01:18:15.497Z,53.23
2018-12-25T01:18:47.106Z,53.21
2018-12-25T01:19:23.325Z,53.25
2018-12-25T01:19:50.333Z,53.23
2018-12-25T01:20:21.925Z,53.24
2018-12-25T01:20:53.555Z,53.24
2018-12-25T01:21:25.172Z,53.22
2018-12-25T01:21:56.780Z,53.21
2018-12-25T01:22:28.377Z,53.13
2018-12-25T01:22:59.988Z,53.22
2018-12-25T01:23:31.586Z,53.32
2018-12-25T01:24:03.198Z,53.16
2018-12-25T01:24:34.812Z,53.28
2018-12-25T01:25:06.396Z,53.31
2018-12-25T01:25:38.006Z,53.28
2018-12-25T01:26:09.643Z,53.32
2018-12-25T01:26:41.242Z,53.34
2018-12-25T01:27:12.838Z,53.30
2018-12-25T01:27:44.448Z,53.37
2018-12-25T01:28:16.039Z,53.33
2018-12-25T01:28:47.652Z,53.30
2018-12-25T01:29:19.245Z,53.38
2018-12-25T01:29:50.859Z,53.41
2018-12-25T01:30:22.444Z,53.35
2018-12-25T01:30:54.076Z,53.44
2018-12-25T01:31:25.669Z,53.50
2018-12-25T01:31:57.280Z,53.46
2018-12-25T01:32:28.868Z,53.48
2018-12-25T01:33:00.473Z,53.48
2018-12-25T01:33:32.070Z,53.51
2018-12-25T01:34:03.670Z,53.51
2018-12-25T01:34:35.394Z,53.44
2018-12-25T01:35:06.996Z,53.46
2018-12-25T01:35:38.592Z,53.49
2018-12-25T01:36:10.233Z,53.56
2018-12-25T01:36:41.834Z,53.55
2018-12-25T01:37:13.420Z,53.55
2018-12-25T01:37:45.030Z,53.57
2018-12-25T01:38:16.640Z,53.65
2018-12-25T01:38:48.236Z,53.58
2018-12-25T01:39:19.835Z,53.66
2018-12-25T01:39:51.420Z,53.71
2018-12-25T01:40:23.019Z,53.81
2018-12-25T01:40:54.623Z,53.81
2018-12-25T01:41:26.212Z,53.82
2018-12-25T01:41:57.824Z,53.86
2018-12-25T01:42:29.424Z,53.90
2018-12-25T01:43:01.031Z,53.90
2018-12-25T01:43:32.616Z,53.85
2018-12-25T01:44:04.223Z,53.93
2018-12-25T01:44:35.818Z,53.90
2018-12-25T01:45:07.420Z,53.92
2018-12-25T01:45:39.019Z,53.82
2018-12-25T01:46:10.639Z,53.90
2018-12-25T01:46:42.243Z,53.84
2018-12-25T01:47:13.842Z,54.00
2018-12-25T01:47:45.451Z,53.91
2018-12-25T01:48:17.059Z,53.97
2018-12-25T01:48:48.667Z,53.92
2018-12-25T01:49:20.280Z,53.95
2018-12-25T01:49:51.878Z,54.22
2018-12-25T01:50:23.471Z,54.36
2018-12-25T01:50:55.066Z,54.26
2018-12-25T01:51:26.676Z,54.30
2018-12-25T01:51:58.270Z,54.30
2018-12-25T01:52:29.861Z,54.14
2018-12-25T01:53:01.464Z,53.53
2018-12-25T01:53:33.075Z,53.58
2018-12-25T01:54:04.679Z,53.59
2018-12-25T01:54:36.283Z,53.75
2018-12-25T01:55:07.892Z,53.78
2018-12-25T01:55:39.486Z,53.82
2018-12-25T01:56:11.102Z,53.83
2018-12-25T01:56:42.688Z,53.81
2018-12-25T01:57:14.292Z,53.88
2018-12-25T01:57:45.899Z,53.80
2018-12-25T01:58:17.508Z,53.87
2018-12-25T01:58:49.116Z,53.83
2018-12-25T01:59:20.719Z,53.85
2018-12-25T01:59:52.318Z,53.91
2018-12-25T02:00:23.923Z,53.98
2018-12-25T02:00:55.536Z,54.04
2018-12-25T02:01:27.148Z,54.08
2018-12-25T02:01:58.753Z,54.11
2018-12-25T02:02:30.353Z,54.11
2018-12-25T02:03:01.967Z,54.24
2018-12-25T02:03:33.615Z,54.17
2018-12-25T02:04:05.214Z,54.27
2018-12-25T02:04:36.824Z,54.41
2018-12-25T02:05:08.431Z,54.45
2018-12-25T02:05:40.040Z,54.53
2018-12-25T02:06:11.628Z,54.46
2018-12-25T02:06:43.249Z,54.55
2018-12-25T02:07:14.841Z,54.53
2018-12-25T02:07:46.459Z,54.55
2018-12-25T02:08:18.054Z,54.63
2018-12-25T02:08:49.664Z,54.63
2018-12-25T02:09:21.262Z,54.62
2018-12-25T02:09:52.843Z,54.66
2018-12-25T02:10:24.443Z,54.70
2018-12-25T02:10:56.052Z,54.72
2018-12-25T02:11:27.678Z,54.76
2018-12-25T02:11:59.270Z,54.72
2018-12-25T02:12:30.879Z,54.75
2018-12-25T02:13:02.479Z,54.75
2018-12-25T02:13:34.087Z,54.79
2018-12-25T02:14:05.686Z,54.79
2018-12-25T02:14:37.295Z,54.87
2018-12-25T02:15:08.898Z,54.86
2018-12-25T02:15:40.489Z,54.84
2018-12-25T02:16:12.195Z,54.92
2018-12-25T02:16:43.828Z,54.93
2018-12-25T02:17:15.411Z,54.95
2018-12-25T02:17:47.004Z,54.95
2018-12-25T02:18:18.598Z,55.00
2018-12-25T02:18:50.194Z,54.98
2018-12-25T02:19:21.790Z,55.02
2018-12-25T02:19:53.393Z,55.05
2018-12-25T02:20:25.000Z,55.08
2018-12-25T02:20:56.604Z,55.05
2018-12-25T02:21:28.244Z,55.13
2018-12-25T02:21:59.837Z,55.13
2018-12-25T02:22:31.439Z,55.15
2018-12-25T02:23:03.033Z,55.11
2018-12-25T02:23:34.644Z,55.17
2018-12-25T02:24:06.242Z,55.15
2018-12-25T02:24:37.824Z,55.18
2018-12-25T02:25:09.418Z,55.18
2018-12-25T02:25:41.004Z,55.23
2018-12-25T02:26:12.600Z,55.23
2018-12-25T02:26:44.219Z,55.26
2018-12-25T02:27:15.814Z,55.32
2018-12-25T02:27:47.421Z,55.26
2018-12-25T02:28:19.027Z,55.24
2018-12-25T02:28:50.625Z,55.25
2018-12-25T02:29:22.231Z,55.19
2018-12-25T02:29:53.835Z,55.24
2018-12-25T02:30:25.449Z,55.36
2018-12-25T02:30:57.056Z,55.30
2018-12-25T02:31:28.653Z,55.22
2018-12-25T02:32:00.270Z,55.22
2018-12-25T02:32:31.881Z,55.10
2018-12-25T02:33:03.517Z,55.13
2018-12-25T02:33:35.121Z,55.06
2018-12-25T02:34:06.720Z,55.00
2018-12-25T02:34:38.332Z,55.02
2018-12-25T02:35:09.930Z,54.91
2018-12-25T02:35:41.526Z,54.81
2018-12-25T02:36:13.146Z,54.84
2018-12-25T02:36:44.781Z,54.83
2018-12-25T02:37:16.360Z,54.88
2018-12-25T02:37:47.963Z,54.69
2018-12-25T02:38:19.558Z,54.67
2018-12-25T02:38:51.149Z,54.72
2018-12-25T02:39:22.757Z,54.60
2018-12-25T02:39:54.369Z,54.69
2018-12-25T02:40:25.983Z,54.73
2018-12-25T02:40:57.568Z,54.69
2018-12-25T02:41:29.162Z,54.68
2018-12-25T02:42:00.804Z,54.66
2018-12-25T02:42:32.388Z,54.53
2018-12-25T02:43:03.985Z,54.64
2018-12-25T02:43:35.578Z,54.64
2018-12-25T02:44:07.170Z,54.48
2018-12-25T02:44:38.768Z,54.52
2018-12-25T02:45:10.373Z,54.55
2018-12-25T02:45:41.963Z,54.35
2018-12-25T02:46:13.564Z,54.45
2018-12-25T02:46:45.182Z,54.53
2018-12-25T02:47:16.789Z,54.52
2018-12-25T02:47:48.396Z,54.49
2018-12-25T02:48:20.007Z,54.26
2018-12-25T02:48:51.606Z,54.85
2018-12-25T02:49:23.216Z,54.79
2018-12-25T02:49:54.826Z,54.55
2018-12-25T02:50:26.409Z,54.40
2018-12-25T02:50:58.002Z,54.37
2018-12-25T02:51:29.595Z,54.39
2018-12-25T02:52:01.214Z,54.50
2018-12-25T02:52:32.806Z,54.33
2018-12-25T02:53:04.410Z,54.43
2018-12-25T02:53:35.993Z,54.40
2018-12-25T02:54:07.586Z,54.61
2018-12-25T02:54:39.200Z,54.70
2018-12-25T02:55:10.795Z,54.57
2018-12-25T02:55:42.390Z,54.61
2018-12-25T02:56:13.982Z,54.77
2018-12-25T02:56:45.597Z,54.60
2018-12-25T02:57:17.209Z,54.53
2018-12-25T02:57:48.821Z,54.79
2018-12-25T02:58:20.433Z,54.71
2018-12-25T02:58:52.051Z,54.79
2018-12-25T02:59:23.646Z,54.59
2018-12-25T02:59:55.241Z,54.63
2018-12-25T03:00:26.856Z,54.52
2018-12-25T03:00:58.461Z,54.60
2018-12-25T03:01:30.073Z,54.61
2018-12-25T03:02:01.684Z,54.56
2018-12-25T03:02:33.291Z,54.46
2018-12-25T03:03:04.878Z,54.59
2018-12-25T03:03:36.623Z,54.73
2018-12-25T03:04:08.276Z,54.62
2018-12-25T03:04:39.891Z,54.52
2018-12-25T03:05:11.840Z,54.44
2018-12-25T03:05:43.428Z,54.42
2018-12-25T03:06:15.032Z,54.43
2018-12-25T03:06:46.652Z,54.50
2018-12-25T03:07:18.288Z,54.44
2018-12-25T03:07:49.893Z,54.43
2018-12-25T03:08:21.506Z,54.53
2018-12-25T03:08:53.120Z,54.50
2018-12-25T03:09:24.715Z,54.66
2018-12-25T03:09:56.310Z,54.52
2018-12-25T03:10:27.887Z,54.55
2018-12-25T03:10:59.486Z,54.56
2018-12-25T03:11:31.082Z,54.53
2018-12-25T03:12:02.677Z,54.69
2018-12-25T03:12:34.302Z,54.56
2018-12-25T03:13:05.897Z,54.63
2018-12-25T03:13:37.508Z,54.63
2018-12-25T03:14:09.113Z,54.66
2018-12-25T03:14:40.715Z,54.78
2018-12-25T03:15:12.319Z,54.71
2018-12-25T03:15:43.924Z,54.80
2018-12-25T03:16:15.537Z,54.73
2018-12-25T03:16:47.136Z,54.84
2018-12-25T03:17:18.769Z,54.89
2018-12-25T03:17:50.370Z,54.91
2018-12-25T03:18:21.980Z,54.88
2018-12-25T03:18:53.564Z,54.87
2018-12-25T03:19:25.177Z,54.87
2018-12-25T03:20:00.041Z,55.02
2018-12-25T03:20:28.430Z,55.03
2018-12-25T03:21:00.035Z,54.91
2018-12-25T03:21:31.645Z,55.12
2018-12-25T03:22:03.238Z,55.09
2018-12-25T03:22:34.858Z,55.13
2018-12-25T03:23:06.459Z,55.15
2018-12-25T03:23:38.054Z,55.24
2018-12-25T03:24:09.639Z,55.29
2018-12-25T03:24:41.249Z,55.36
2018-12-25T03:25:12.862Z,55.39
2018-12-25T03:25:44.458Z,55.41
2018-12-25T03:26:16.052Z,55.49
2018-12-25T03:26:47.648Z,55.58
2018-12-25T03:27:19.260Z,55.70
2018-12-25T03:27:50.874Z,55.60
2018-12-25T03:28:22.461Z,55.74
2018-12-25T03:28:54.048Z,55.77
2018-12-25T03:29:25.647Z,55.78
2018-12-25T03:29:57.235Z,55.88
2018-12-25T03:30:28.842Z,55.92
2018-12-25T03:31:00.451Z,55.98
2018-12-25T03:31:32.060Z,56.07
2018-12-25T03:32:03.675Z,56.05
2018-12-25T03:32:35.313Z,56.13
2018-12-25T03:33:06.963Z,56.15
2018-12-25T03:33:38.562Z,56.17
2018-12-25T03:34:10.167Z,56.16
2018-12-25T03:34:41.763Z,56.22
2018-12-25T03:35:13.362Z,56.29
2018-12-25T03:35:44.969Z,56.36
2018-12-25T03:36:16.567Z,56.38
2018-12-25T03:36:48.162Z,56.37
2018-12-25T03:37:19.768Z,56.37
2018-12-25T03:37:51.407Z,56.40
2018-12-25T03:38:23.002Z,56.46
2018-12-25T03:38:54.622Z,56.47
2018-12-25T03:39:26.222Z,56.65
2018-12-25T03:39:57.809Z,56.91
2018-12-25T03:40:29.401Z,56.83
2018-12-25T03:41:00.998Z,56.74
2018-12-25T03:41:32.588Z,56.82
2018-12-25T03:42:04.188Z,56.78
2018-12-25T03:42:35.814Z,56.90
2018-12-25T03:43:07.406Z,56.90
2018-12-25T03:43:39.001Z,56.88
2018-12-25T03:44:10.607Z,56.98
2018-12-25T03:44:42.241Z,56.92
2018-12-25T03:45:13.827Z,57.00
2018-12-25T03:45:45.443Z,56.98
2018-12-25T03:46:17.039Z,56.92
2018-12-25T03:46:48.633Z,56.95
2018-12-25T03:47:20.236Z,56.99
2018-12-25T03:47:51.877Z,56.94
2018-12-25T03:48:23.483Z,56.96
2018-12-25T03:48:55.086Z,56.96
2018-12-25T03:49:26.666Z,56.95
2018-12-25T03:49:58.364Z,57.02
2018-12-25T03:50:29.964Z,57.00
2018-12-25T03:51:01.544Z,57.03
2018-12-25T03:51:33.149Z,57.30
2018-12-25T03:52:04.750Z,57.27
2018-12-25T03:52:36.362Z,57.16
2018-12-25T03:53:07.962Z,57.11
2018-12-25T03:53:39.572Z,57.04
2018-12-25T03:54:11.175Z,57.28
2018-12-25T03:54:42.786Z,57.25
2018-12-25T03:55:14.409Z,57.62
2018-12-25T03:55:46.011Z,57.50
2018-12-25T03:56:17.610Z,57.51
2018-12-25T03:56:49.206Z,57.40
2018-12-25T03:57:20.820Z,57.30
2018-12-25T03:57:52.456Z,57.19
2018-12-25T03:58:24.068Z,56.87
2018-12-25T03:58:55.671Z,56.59
2018-12-25T03:59:27.264Z,56.43
2018-12-25T03:59:58.859Z,56.54
2018-12-25T04:00:30.445Z,56.38
2018-12-25T04:01:02.028Z,56.37
2018-12-25T04:01:33.623Z,56.34
2018-12-25T04:02:05.228Z,56.41
2018-12-25T04:02:36.821Z,56.53
2018-12-25T04:03:08.456Z,56.22
2018-12-25T04:03:40.065Z,56.35
2018-12-25T04:04:11.677Z,56.24
2018-12-25T04:04:43.274Z,56.25
2018-12-25T04:05:14.884Z,56.28
2018-12-25T04:05:46.486Z,56.38
2018-12-25T04:06:18.072Z,56.26
2018-12-25T04:06:49.670Z,56.19
2018-12-25T04:07:21.276Z,56.34
2018-12-25T04:07:52.896Z,56.34
2018-12-25T04:08:24.509Z,56.48
2018-12-25T04:08:56.142Z,56.44
2018-12-25T04:09:27.754Z,56.45
2018-12-25T04:09:59.463Z,56.27
2018-12-25T04:10:31.076Z,56.47
2018-12-25T04:11:02.678Z,56.46
2018-12-25T04:11:34.299Z,56.47
2018-12-25T04:12:05.893Z,56.43
2018-12-25T04:12:37.491Z,56.37
2018-12-25T04:13:09.230Z,56.27
2018-12-25T04:13:40.780Z,56.34
2018-12-25T04:14:12.365Z,56.35
2018-12-25T04:14:43.971Z,56.20
2018-12-25T04:15:15.573Z,56.41
2018-12-25T04:15:47.190Z,56.18
2018-12-25T04:16:18.799Z,56.17
2018-12-25T04:16:50.398Z,56.11
2018-12-25T04:17:22.012Z,56.18
2018-12-25T04:17:53.625Z,55.96
2018-12-25T04:18:25.225Z,56.15
2018-12-25T04:18:56.821Z,55.93
2018-12-25T04:19:28.424Z,56.02
2018-12-25T04:20:00.008Z,55.92
2018-12-25T04:20:31.610Z,55.88
2018-12-25T04:21:03.213Z,55.89
2018-12-25T04:21:34.806Z,55.91
2018-12-25T04:22:06.403Z,55.88
2018-12-25T04:22:38.021Z,56.01
2018-12-25T04:23:09.649Z,55.88
2018-12-25T04:23:41.246Z,55.84
2018-12-25T04:24:12.855Z,55.92
2018-12-25T04:24:44.449Z,55.91
2018-12-25T04:25:16.042Z,55.83
2018-12-25T04:25:47.638Z,55.81
2018-12-25T04:26:19.239Z,55.74
2018-12-25T04:26:50.834Z,55.78
2018-12-25T04:27:22.436Z,55.89
2018-12-25T04:27:54.068Z,55.91
2018-12-25T04:28:25.670Z,55.89
2018-12-25T04:28:57.262Z,55.96
2018-12-25T04:29:28.877Z,55.95
2018-12-25T04:30:00.481Z,55.72
2018-12-25T04:30:32.096Z,55.81
2018-12-25T04:31:03.722Z,55.82
2018-12-25T04:31:35.325Z,55.72
2018-12-25T04:32:06.909Z,55.72
2018-12-25T04:32:38.496Z,56.05
2018-12-25T04:33:10.129Z,55.96
2018-12-25T04:33:41.725Z,55.89
2018-12-25T04:34:13.318Z,55.94
2018-12-25T04:34:44.910Z,55.93
2018-12-25T04:35:16.510Z,55.84
2018-12-25T04:35:48.115Z,55.95
2018-12-25T04:36:19.707Z,55.94
2018-12-25T04:36:51.318Z,55.90
2018-12-25T04:37:22.914Z,56.14
2018-12-25T04:37:54.504Z,56.23
2018-12-25T04:38:26.093Z,56.17
2018-12-25T04:38:58.705Z,56.09
2018-12-25T04:39:30.299Z,56.07
2018-12-25T04:40:01.895Z,55.99
2018-12-25T04:40:33.512Z,56.03
2018-12-25T04:41:05.106Z,56.05
2018-12-25T04:41:36.706Z,56.05
2018-12-25T04:42:08.301Z,56.09
2018-12-25T04:42:39.911Z,56.09
2018-12-25T04:43:11.557Z,56.20
2018-12-25T04:43:43.149Z,56.19
2018-12-25T04:44:14.741Z,56.11
2018-12-25T04:44:46.340Z,56.06
2018-12-25T04:45:17.934Z,56.00
2018-12-25T04:45:49.541Z,56.29
2018-12-25T04:46:21.142Z,56.35
2018-12-25T04:46:52.747Z,56.36
2018-12-25T04:47:24.341Z,56.36
2018-12-25T04:47:55.924Z,56.37
2018-12-25T04:48:27.561Z,56.53
2018-12-25T04:48:59.158Z,56.55
2018-12-25T04:49:30.766Z,56.46
2018-12-25T04:50:02.447Z,56.68
2018-12-25T04:50:34.046Z,56.52
2018-12-25T04:51:05.651Z,56.79
2018-12-25T04:51:37.245Z,56.80
2018-12-25T04:52:08.849Z,56.81
2018-12-25T04:52:40.447Z,56.76
2018-12-25T04:53:12.068Z,56.88
2018-12-25T04:53:43.700Z,56.82
2018-12-25T04:54:15.301Z,56.84
2018-12-25T04:54:46.894Z,56.94
2018-12-25T04:55:18.478Z,56.97
2018-12-25T04:55:50.077Z,57.02
2018-12-25T04:56:21.683Z,57.00
2018-12-25T04:56:53.277Z,57.01
2018-12-25T04:57:24.861Z,57.00
2018-12-25T04:57:56.444Z,57.06
2018-12-25T04:58:28.055Z,57.12
2018-12-25T04:58:59.654Z,57.15
2018-12-25T04:59:31.249Z,57.18
2018-12-25T05:00:02.855Z,57.16
2018-12-25T05:00:34.440Z,57.21
2018-12-25T05:01:06.047Z,57.20
2018-12-25T05:01:37.908Z,57.23
2018-12-25T05:02:09.833Z,57.28
2018-12-25T05:02:41.622Z,57.36
2018-12-25T05:03:13.584Z,57.38
2018-12-25T05:03:45.285Z,57.38
2018-12-25T05:04:17.236Z,57.42
2018-12-25T05:04:49.271Z,57.51
2018-12-25T05:05:21.711Z,57.55
2018-12-25T05:05:53.289Z,57.47
2018-12-25T05:06:24.872Z,57.54
2018-12-25T05:06:56.473Z,57.48
2018-12-25T05:07:28.084Z,57.54
2018-12-25T05:07:59.683Z,57.60
2018-12-25T05:08:31.296Z,57.63
2018-12-25T05:09:02.933Z,57.67
2018-12-25T05:09:34.534Z,57.68
2018-12-25T05:10:06.143Z,57.67
2018-12-25T05:10:37.738Z,57.67
2018-12-25T05:11:09.338Z,57.72
2018-12-25T05:11:40.945Z,57.72
2018-12-25T05:12:12.528Z,57.74
2018-12-25T05:12:44.121Z,57.74
2018-12-25T05:13:15.737Z,57.96
2018-12-25T05:13:47.365Z,57.88
2018-12-25T05:14:18.960Z,57.96
2018-12-25T05:14:50.619Z,58.04
2018-12-25T05:15:22.220Z,58.03
2018-12-25T05:15:53.817Z,58.10
2018-12-25T05:16:25.405Z,58.17
2018-12-25T05:16:56.998Z,58.21
2018-12-25T05:17:28.580Z,58.23
2018-12-25T05:18:00.178Z,58.29
2018-12-25T05:18:31.792Z,58.34
2018-12-25T05:19:03.437Z,58.38
2018-12-25T05:19:35.052Z,58.45
2018-12-25T05:20:06.649Z,58.57
2018-12-25T05:20:38.282Z,58.58
2018-12-25T05:21:09.880Z,58.63
2018-12-25T05:21:41.487Z,58.57
2018-12-25T05:22:13.097Z,58.64
2018-12-25T05:22:44.708Z,58.65
2018-12-25T05:23:16.302Z,58.68
2018-12-25T05:23:47.922Z,58.50
2018-12-25T05:24:19.518Z,58.47
2018-12-25T05:24:51.109Z,58.45
2018-12-25T05:25:22.703Z,58.10
2018-12-25T05:25:54.299Z,58.14
2018-12-25T05:26:25.903Z,58.10
2018-12-25T05:26:57.508Z,57.93
2018-12-25T05:27:29.110Z,58.05
2018-12-25T05:28:00.705Z,57.97
2018-12-25T05:28:32.288Z,58.00
2018-12-25T05:29:03.924Z,57.94
2018-12-25T05:29:35.537Z,58.18
2018-12-25T05:30:07.134Z,58.09
2018-12-25T05:30:38.743Z,57.94
2018-12-25T05:31:10.355Z,57.89
2018-12-25T05:31:41.954Z,57.64
2018-12-25T05:32:13.546Z,57.92
2018-12-25T05:32:45.151Z,57.77
2018-12-25T05:33:16.760Z,57.60
2018-12-25T05:33:48.357Z,57.66
2018-12-25T05:34:19.974Z,57.45
2018-12-25T05:34:51.556Z,57.48
2018-12-25T05:35:23.160Z,57.24
2018-12-25T05:35:54.772Z,57.32
2018-12-25T05:36:26.367Z,57.13
2018-12-25T05:36:57.976Z,57.03
2018-12-25T05:37:29.574Z,57.26
2018-12-25T05:38:01.183Z,57.02
2018-12-25T05:38:32.788Z,57.06
2018-12-25T05:39:04.415Z,57.10
2018-12-25T05:39:36.027Z,57.07
2018-12-25T05:40:07.631Z,56.83
2018-12-25T05:40:39.229Z,56.79
2018-12-25T05:41:10.811Z,56.76
2018-12-25T05:41:42.391Z,56.78
2018-12-25T05:42:13.989Z,56.87
2018-12-25T05:42:45.580Z,56.80
2018-12-25T05:43:17.183Z,57.03
2018-12-25T05:43:48.792Z,57.30
2018-12-25T05:44:20.436Z,57.18
2018-12-25T05:44:52.034Z,57.22
2018-12-25T05:45:23.644Z,57.37
2018-12-25T05:45:55.250Z,57.37
2018-12-25T05:46:26.856Z,57.29
2018-12-25T05:46:58.460Z,57.32
2018-12-25T05:47:30.063Z,57.22
2018-12-25T05:48:01.658Z,57.58
2018-12-25T05:48:33.250Z,57.25
2018-12-25T05:49:04.894Z,57.19
2018-12-25T05:49:36.503Z,57.24
2018-12-25T05:50:08.101Z,57.11
2018-12-25T05:50:46.610Z,57.10
2018-12-25T05:51:11.386Z,57.22
2018-12-25T05:51:42.986Z,57.22
2018-12-25T05:52:14.583Z,57.05
2018-12-25T05:52:46.182Z,57.03
2018-12-25T05:53:17.764Z,57.03
2018-12-25T05:53:49.357Z,57.01
2018-12-25T05:54:20.977Z,57.09
2018-12-25T05:54:52.583Z,56.87
2018-12-25T05:55:24.162Z,56.91
2018-12-25T05:55:55.768Z,56.89
2018-12-25T05:56:27.375Z,57.02
2018-12-25T05:56:58.979Z,56.95
2018-12-25T05:57:30.579Z,56.86
2018-12-25T05:58:02.173Z,56.96
2018-12-25T05:58:33.786Z,57.00
2018-12-25T05:59:05.402Z,57.12
2018-12-25T05:59:37.026Z,57.02
2018-12-25T06:00:08.632Z,57.09
2018-12-25T06:00:40.243Z,56.99
2018-12-25T06:01:11.837Z,57.03
2018-12-25T06:01:43.444Z,57.07
2018-12-25T06:02:15.051Z,57.13
2018-12-25T06:02:46.646Z,57.01
2018-12-25T06:03:18.238Z,56.93
2018-12-25T06:03:49.848Z,57.00
2018-12-25T06:04:21.488Z,56.91
2018-12-25T06:04:53.104Z,56.90
2018-12-25T06:05:24.702Z,56.98
2018-12-25T06:05:56.297Z,56.93
2018-12-25T06:06:27.889Z,56.87
2018-12-25T06:06:59.491Z,57.09
2018-12-25T06:07:31.103Z,56.88
2018-12-25T06:08:02.711Z,57.15
2018-12-25T06:08:34.332Z,56.98
2018-12-25T06:09:05.955Z,56.91
2018-12-25T06:09:37.592Z,56.97
2018-12-25T06:10:09.190Z,57.02
2018-12-25T06:10:40.785Z,56.87
2018-12-25T06:11:12.387Z,57.05
2018-12-25T06:11:43.986Z,56.99
2018-12-25T06:12:15.578Z,56.90
2018-12-25T06:12:47.183Z,57.11
2018-12-25T06:13:18.781Z,57.08
2018-12-25T06:13:50.374Z,57.09
2018-12-25T06:14:21.997Z,57.11
2018-12-25T06:14:53.603Z,57.08
2018-12-25T06:15:25.197Z,57.11
2018-12-25T06:15:56.785Z,57.24
2018-12-25T06:16:28.403Z,57.19
2018-12-25T06:17:00.103Z,57.24
2018-12-25T06:17:31.716Z,57.27
2018-12-25T06:18:03.313Z,57.37
2018-12-25T06:18:34.925Z,57.34
2018-12-25T06:19:06.525Z,57.30
2018-12-25T06:19:38.146Z,57.22
2018-12-25T06:20:09.756Z,57.21
2018-12-25T06:20:41.365Z,57.21
2018-12-25T06:21:12.951Z,57.36
2018-12-25T06:21:44.546Z,57.27
2018-12-25T06:22:16.156Z,57.31
2018-12-25T06:22:47.809Z,57.29
2018-12-25T06:23:19.405Z,57.39
2018-12-25T06:23:50.998Z,57.43
2018-12-25T06:24:22.579Z,57.43
2018-12-25T06:24:54.198Z,57.55
2018-12-25T06:25:25.789Z,57.56
2018-12-25T06:25:57.401Z,57.60
2018-12-25T06:26:28.988Z,57.64
2018-12-25T06:27:00.586Z,57.63
2018-12-25T06:27:32.197Z,57.64
2018-12-25T06:28:03.808Z,57.68
2018-12-25T06:28:35.420Z,57.72
2018-12-25T06:29:07.014Z,57.77
2018-12-25T06:29:38.620Z,57.78
2018-12-25T06:30:10.219Z,57.85
2018-12-25T06:30:41.814Z,57.88
2018-12-25T06:31:13.406Z,57.82
2018-12-25T06:31:45.008Z,57.90
2018-12-25T06:32:16.616Z,57.98
2018-12-25T06:32:48.214Z,58.04
2018-12-25T06:33:19.806Z,58.06
2018-12-25T06:33:51.407Z,58.08
2018-12-25T06:34:23.004Z,58.12
2018-12-25T06:34:54.630Z,58.15
2018-12-25T06:35:26.225Z,58.19
2018-12-25T06:35:57.832Z,58.16
2018-12-25T06:36:29.443Z,58.12
2018-12-25T06:37:01.037Z,58.21
2018-12-25T06:37:32.624Z,58.19
2018-12-25T06:38:04.232Z,58.23
2018-12-25T06:38:35.845Z,58.26
2018-12-25T06:39:07.442Z,58.20
2018-12-25T06:39:39.062Z,58.20
2018-12-25T06:40:10.695Z,58.21
2018-12-25T06:40:42.294Z,58.22
2018-12-25T06:41:13.885Z,58.22
2018-12-25T06:41:45.477Z,58.26
2018-12-25T06:42:17.084Z,58.16
2018-12-25T06:42:48.692Z,58.21
2018-12-25T06:43:20.301Z,58.14
2018-12-25T06:43:51.912Z,58.10
2018-12-25T06:44:23.510Z,58.01
2018-12-25T06:44:55.129Z,57.85
2018-12-25T06:45:26.722Z,57.91
2018-12-25T06:45:58.322Z,57.89
2018-12-25T06:46:29.931Z,57.77
2018-12-25T06:47:01.521Z,57.83